sensor_id;sensor_type;location;lat;lon;timestamp;pressure;altitude;pressure_sealevel;temperature;humidity
12666;BME280;58531;59.050;17.416;2022-10-31T00:00:47;101195.38;;;1.48;100.00
12666;BME280;58531;59.050;17.416;2022-10-31T00:03:15;101198.03;;;1.48;100.00
12666;BME280;58531;59.050;17.416;2022-10-31T00:05:45;101196.94;;;1.53;100.00
12666;BME280;58531;59.050;17.416;2022-10-31T00:08:14;101201.81;;;1.54;100.00
12666;BME280;58531;59.050;17.416;2022-10-31T00:10:42;101188.72;;;1.58;100.00
12666;BME280;58531;59.050;17.416;2022-10-31T00:13:11;101192.16;;;1.62;100.00
12666;BME280;58531;59.050;17.416;2022-10-31T00:15:39;101186.66;;;1.77;100.00
12666;BME280;58531;59.050;17.416;2022-10-31T00:18:07;101185.63;;;1.89;100.00
12666;BME280;58531;59.050;17.416;2022-10-31T00:20:36;101180.09;;;2.01;100.00
12666;BME280;58531;59.050;17.416;2022-10-31T00:23:18;101181.34;;;2.14;100.00
12666;BME280;58531;59.050;17.416;2022-10-31T00:25:47;101182.22;;;2.25;100.00
12666;BME280;58531;59.050;17.416;2022-10-31T00:28:15;101181.84;;;2.26;100.00
12666;BME280;58531;59.050;17.416;2022-10-31T00:30:43;101187.47;;;2.25;100.00
12666;BME280;58531;59.050;17.416;2022-10-31T00:33:11;101179.91;;;2.20;100.00
12666;BME280;58531;59.050;17.416;2022-10-31T00:35:41;101175.88;;;2.36;100.00
12666;BME280;58531;59.050;17.416;2022-10-31T00:38:10;101172.56;;;2.46;100.00
12666;BME280;58531;59.050;17.416;2022-10-31T00:40:40;101171.91;;;2.59;100.00
12666;BME280;58531;59.050;17.416;2022-10-31T00:43:08;101166.69;;;2.66;100.00
12666;BME280;58531;59.050;17.416;2022-10-31T00:45:36;101170.16;;;2.81;100.00
12666;BME280;58531;59.050;17.416;2022-10-31T00:48:06;101173.22;;;2.90;100.00
12666;BME280;58531;59.050;17.416;2022-10-31T00:50:41;101171.75;;;2.96;100.00
12666;BME280;58531;59.050;17.416;2022-10-31T00:53:10;101165.75;;;3.02;100.00
12666;BME280;58531;59.050;17.416;2022-10-31T00:55:44;101171.41;;;3.08;100.00
12666;BME280;58531;59.050;17.416;2022-10-31T00:58:14;101168.41;;;3.13;100.00
12666;BME280;58531;59.050;17.416;2022-10-31T01:00:43;101165.81;;;3.16;100.00
12666;BME280;58531;59.050;17.416;2022-10-31T01:03:11;101167.31;;;3.17;100.00
12666;BME280;58531;59.050;17.416;2022-10-31T01:05:38;101158.63;;;3.13;100.00
12666;BME280;58531;59.050;17.416;2022-10-31T01:08:07;101162.38;;;3.09;100.00
12666;BME280;58531;59.050;17.416;2022-10-31T01:10:35;101167.63;;;3.02;100.00
12666;BME280;58531;59.050;17.416;2022-10-31T01:13:04;101160.84;;;3.01;100.00
12666;BME280;58531;59.050;17.416;2022-10-31T01:15:33;101164.22;;;2.98;100.00
12666;BME280;58531;59.050;17.416;2022-10-31T01:18:01;101159.31;;;2.96;100.00
12666;BME280;58531;59.050;17.416;2022-10-31T01:20:29;101160.47;;;2.99;100.00
12666;BME280;58531;59.050;17.416;2022-10-31T01:23:00;101166.50;;;3.06;100.00
12666;BME280;58531;59.050;17.416;2022-10-31T01:25:27;101163.53;;;3.11;100.00
12666;BME280;58531;59.050;17.416;2022-10-31T01:27:55;101167.69;;;3.16;100.00
12666;BME280;58531;59.050;17.416;2022-10-31T01:30:25;101169.22;;;3.20;100.00
12666;BME280;58531;59.050;17.416;2022-10-31T01:32:52;101168.47;;;3.23;100.00
12666;BME280;58531;59.050;17.416;2022-10-31T01:35:20;101173.03;;;3.26;100.00
12666;BME280;58531;59.050;17.416;2022-10-31T01:37:48;101167.34;;;3.28;100.00
12666;BME280;58531;59.050;17.416;2022-10-31T01:40:28;101160.59;;;3.30;100.00
12666;BME280;58531;59.050;17.416;2022-10-31T01:42:57;101162.47;;;3.30;100.00
12666;BME280;58531;59.050;17.416;2022-10-31T01:45:26;101162.06;;;3.28;100.00
12666;BME280;58531;59.050;17.416;2022-10-31T01:47:56;101166.22;;;3.25;100.00
12666;BME280;58531;59.050;17.416;2022-10-31T01:50:28;101160.19;;;3.21;100.00
12666;BME280;58531;59.050;17.416;2022-10-31T01:53:00;101160.91;;;3.18;100.00
12666;BME280;58531;59.050;17.416;2022-10-31T01:55:31;101167.72;;;3.19;100.00
12666;BME280;58531;59.050;17.416;2022-10-31T01:58:04;101150.75;;;3.20;100.00
12666;BME280;58531;59.050;17.416;2022-10-31T02:00:36;101157.19;;;3.26;100.00
12666;BME280;58531;59.050;17.416;2022-10-31T02:03:04;101151.16;;;3.29;100.00
12666;BME280;58531;59.050;17.416;2022-10-31T02:05:32;101156.06;;;3.34;100.00
12666;BME280;58531;59.050;17.416;2022-10-31T02:08:06;101150.81;;;3.41;100.00
12666;BME280;58531;59.050;17.416;2022-10-31T02:10:36;101159.13;;;3.50;100.00
12666;BME280;58531;59.050;17.416;2022-10-31T02:13:06;101160.28;;;3.59;100.00
12666;BME280;58531;59.050;17.416;2022-10-31T02:15:36;101164.44;;;3.67;100.00
12666;BME280;58531;59.050;17.416;2022-10-31T02:18:05;101172.41;;;3.78;100.00
12666;BME280;58531;59.050;17.416;2022-10-31T02:20:39;101174.66;;;3.90;100.00
12666;BME280;58531;59.050;17.416;2022-10-31T02:26:37;101167.53;;;4.15;100.00
12666;BME280;58531;59.050;17.416;2022-10-31T02:29:23;101165.66;;;4.26;100.00
12666;BME280;58531;59.050;17.416;2022-10-31T02:31:59;101163.00;;;4.36;100.00
12666;BME280;58531;59.050;17.416;2022-10-31T02:34:36;101161.47;;;4.42;100.00
12666;BME280;58531;59.050;17.416;2022-10-31T02:37:10;101164.13;;;4.42;100.00
12666;BME280;58531;59.050;17.416;2022-10-31T02:39:44;101170.53;;;4.45;100.00
12666;BME280;58531;59.050;17.416;2022-10-31T02:42:18;101168.25;;;4.47;100.00
12666;BME280;58531;59.050;17.416;2022-10-31T02:44:55;101167.91;;;4.48;100.00
12666;BME280;58531;59.050;17.416;2022-10-31T02:47:38;101165.63;;;4.54;100.00
12666;BME280;58531;59.050;17.416;2022-10-31T02:50:08;101164.09;;;4.60;100.00
12666;BME280;58531;59.050;17.416;2022-10-31T02:52:38;101171.63;;;4.68;100.00
12666;BME280;58531;59.050;17.416;2022-10-31T02:55:11;101160.66;;;4.73;100.00
12666;BME280;58531;59.050;17.416;2022-10-31T02:57:40;101165.94;;;4.80;100.00
12666;BME280;58531;59.050;17.416;2022-10-31T03:00:10;101156.44;;;4.89;100.00
12666;BME280;58531;59.050;17.416;2022-10-31T03:03:03;101156.03;;;5.01;100.00
12666;BME280;58531;59.050;17.416;2022-10-31T03:05:41;101157.91;;;5.11;100.00
12666;BME280;58531;59.050;17.416;2022-10-31T03:08:18;101157.88;;;5.18;100.00
12666;BME280;58531;59.050;17.416;2022-10-31T03:10:53;101168.44;;;5.25;100.00
12666;BME280;58531;59.050;17.416;2022-10-31T03:13:32;101161.25;;;5.29;100.00
12666;BME280;58531;59.050;17.416;2022-10-31T03:16:07;101167.66;;;5.35;100.00
12666;BME280;58531;59.050;17.416;2022-10-31T03:18:40;101168.34;;;5.43;100.00
12666;BME280;58531;59.050;17.416;2022-10-31T03:21:12;101174.41;;;5.47;100.00
12666;BME280;58531;59.050;17.416;2022-10-31T03:23:43;101173.22;;;5.51;100.00
12666;BME280;58531;59.050;17.416;2022-10-31T03:26:14;101178.13;;;5.56;100.00
12666;BME280;58531;59.050;17.416;2022-10-31T03:28:46;101169.75;;;5.65;100.00
12666;BME280;58531;59.050;17.416;2022-10-31T03:31:25;101175.03;;;5.68;100.00
12666;BME280;58531;59.050;17.416;2022-10-31T03:33:56;101172.34;;;5.75;100.00
12666;BME280;58531;59.050;17.416;2022-10-31T03:36:30;101166.28;;;5.78;100.00
12666;BME280;58531;59.050;17.416;2022-10-31T03:39:00;101171.94;;;5.83;100.00
12666;BME280;58531;59.050;17.416;2022-10-31T03:41:31;101160.16;;;5.88;100.00
12666;BME280;58531;59.050;17.416;2022-10-31T03:44:04;101159.75;;;5.93;100.00
12666;BME280;58531;59.050;17.416;2022-10-31T03:46:35;101159.75;;;5.93;100.00
12666;BME280;58531;59.050;17.416;2022-10-31T03:49:09;101156.69;;;5.98;100.00
12666;BME280;58531;59.050;17.416;2022-10-31T03:51:39;101160.88;;;5.95;100.00
12666;BME280;58531;59.050;17.416;2022-10-31T03:54:13;101148.34;;;5.96;100.00
12666;BME280;58531;59.050;17.416;2022-10-31T03:56:49;101154.03;;;5.98;100.00
12666;BME280;58531;59.050;17.416;2022-10-31T03:59:21;101150.63;;;5.97;100.00
12666;BME280;58531;59.050;17.416;2022-10-31T04:01:52;101155.91;;;6.01;100.00
12666;BME280;58531;59.050;17.416;2022-10-31T04:04:24;101151.69;;;6.07;100.00
12666;BME280;58531;59.050;17.416;2022-10-31T04:06:53;101148.63;;;6.12;100.00
12666;BME280;58531;59.050;17.416;2022-10-31T04:09:25;101147.84;;;6.15;100.00
12666;BME280;58531;59.050;17.416;2022-10-31T04:11:56;101141.00;;;6.17;100.00
12666;BME280;58531;59.050;17.416;2022-10-31T04:14:29;101138.69;;;6.23;100.00
12666;BME280;58531;59.050;17.416;2022-10-31T04:17:00;101131.50;;;6.20;100.00
12666;BME280;58531;59.050;17.416;2022-10-31T04:19:31;101137.91;;;6.26;100.00
12666;BME280;58531;59.050;17.416;2022-10-31T04:21:59;101139.78;;;6.29;100.00
12666;BME280;58531;59.050;17.416;2022-10-31T04:24:40;101135.63;;;6.28;100.00
12666;BME280;58531;59.050;17.416;2022-10-31T04:27:08;101139.72;;;6.32;100.00
12666;BME280;58531;59.050;17.416;2022-10-31T04:29:38;101134.41;;;6.36;100.00
12666;BME280;58531;59.050;17.416;2022-10-31T04:32:07;101138.53;;;6.40;100.00
12666;BME280;58531;59.050;17.416;2022-10-31T04:34:36;101140.75;;;6.45;100.00
12666;BME280;58531;59.050;17.416;2022-10-31T04:37:04;101138.81;;;6.49;100.00
12666;BME280;58531;59.050;17.416;2022-10-31T04:39:32;101136.47;;;6.55;100.00
12666;BME280;58531;59.050;17.416;2022-10-31T04:42:00;101138.72;;;6.60;100.00
12666;BME280;58531;59.050;17.416;2022-10-31T04:44:28;101143.28;;;6.59;100.00
12666;BME280;58531;59.050;17.416;2022-10-31T04:46:58;101145.47;;;6.64;100.00
12666;BME280;58531;59.050;17.416;2022-10-31T04:49:27;101142.38;;;6.69;100.00
12666;BME280;58531;59.050;17.416;2022-10-31T04:51:57;101140.47;;;6.73;100.00
12666;BME280;58531;59.050;17.416;2022-10-31T04:54:25;101137.78;;;6.77;100.00
12666;BME280;58531;59.050;17.416;2022-10-31T04:56:55;101133.63;;;6.76;100.00
12666;BME280;58531;59.050;17.416;2022-10-31T04:59:26;101126.81;;;6.75;100.00
12666;BME280;58531;59.050;17.416;2022-10-31T05:01:53;101131.75;;;6.73;100.00
12666;BME280;58531;59.050;17.416;2022-10-31T05:04:24;101137.78;;;6.77;100.00
12666;BME280;58531;59.050;17.416;2022-10-31T05:06:52;101126.72;;;6.82;100.00
12666;BME280;58531;59.050;17.416;2022-10-31T05:09:22;101124.03;;;6.85;100.00
12666;BME280;58531;59.050;17.416;2022-10-31T05:11:51;101129.63;;;6.91;100.00
12666;BME280;58531;59.050;17.416;2022-10-31T05:14:19;101125.84;;;6.92;100.00
12666;BME280;58531;59.050;17.416;2022-10-31T05:17:03;101126.19;;;6.94;100.00
12666;BME280;58531;59.050;17.416;2022-10-31T05:19:30;101120.88;;;6.94;100.00
12666;BME280;58531;59.050;17.416;2022-10-31T05:21:58;101117.44;;;6.97;100.00
12666;BME280;58531;59.050;17.416;2022-10-31T05:24:28;101114.78;;;6.97;100.00
12666;BME280;58531;59.050;17.416;2022-10-31T05:27:00;101121.16;;;7.02;100.00
12666;BME280;58531;59.050;17.416;2022-10-31T05:29:28;101127.59;;;7.05;100.00
12666;BME280;58531;59.050;17.416;2022-10-31T05:31:59;101120.69;;;7.11;100.00
12666;BME280;58531;59.050;17.416;2022-10-31T05:34:28;101130.53;;;7.10;100.00
12666;BME280;58531;59.050;17.416;2022-10-31T05:36:56;101120.69;;;7.11;100.00
12666;BME280;58531;59.050;17.416;2022-10-31T05:39:23;101131.63;;;7.16;100.00
12666;BME280;58531;59.050;17.416;2022-10-31T05:41:53;101125.88;;;7.18;100.00
12666;BME280;58531;59.050;17.416;2022-10-31T05:44:20;101122.84;;;7.19;100.00
12666;BME280;58531;59.050;17.416;2022-10-31T05:46:48;101127.41;;;7.19;100.00
12666;BME280;58531;59.050;17.416;2022-10-31T05:49:16;101125.06;;;7.24;100.00
12666;BME280;58531;59.050;17.416;2022-10-31T05:51:45;101125.78;;;7.28;100.00
12666;BME280;58531;59.050;17.416;2022-10-31T05:54:14;101127.28;;;7.29;100.00
12666;BME280;58531;59.050;17.416;2022-10-31T05:56:42;101134.09;;;7.30;100.00
12666;BME280;58531;59.050;17.416;2022-10-31T05:59:11;101136.41;;;7.28;100.00
12666;BME280;58531;59.050;17.416;2022-10-31T06:01:41;101140.22;;;7.27;100.00
12666;BME280;58531;59.050;17.416;2022-10-31T06:04:11;101136.03;;;7.26;100.00
12666;BME280;58531;59.050;17.416;2022-10-31T06:06:40;101133.75;;;7.28;100.00
12666;BME280;58531;59.050;17.416;2022-10-31T06:09:07;101141.72;;;7.28;100.00
12666;BME280;58531;59.050;17.416;2022-10-31T06:11:35;101137.47;;;7.34;100.00
12666;BME280;58531;59.050;17.416;2022-10-31T06:14:18;101148.38;;;7.40;100.00
12666;BME280;58531;59.050;17.416;2022-10-31T06:16:45;101138.09;;;7.42;100.00
12666;BME280;58531;59.050;17.416;2022-10-31T06:19:13;101141.06;;;7.47;100.00
12666;BME280;58531;59.050;17.416;2022-10-31T06:21:42;101140.25;;;7.50;100.00
12666;BME280;58531;59.050;17.416;2022-10-31T06:24:11;101140.59;;;7.56;100.00
12666;BME280;58531;59.050;17.416;2022-10-31T06:26:40;101136.81;;;7.53;100.00
12666;BME280;58531;59.050;17.416;2022-10-31T06:29:09;101137.47;;;7.61;100.00
12666;BME280;58531;59.050;17.416;2022-10-31T06:31:39;101150.34;;;7.62;100.00
12666;BME280;58531;59.050;17.416;2022-10-31T06:34:07;101151.84;;;7.63;100.00
12666;BME280;58531;59.050;17.416;2022-10-31T06:36:36;101148.84;;;7.61;100.00
12666;BME280;58531;59.050;17.416;2022-10-31T06:39:04;101156.47;;;7.59;100.00
12666;BME280;58531;59.050;17.416;2022-10-31T06:41:32;101154.94;;;7.62;100.00
12666;BME280;58531;59.050;17.416;2022-10-31T06:43:59;101138.22;;;7.61;100.00
12666;BME280;58531;59.050;17.416;2022-10-31T06:46:26;101144.59;;;7.67;100.00
12666;BME280;58531;59.050;17.416;2022-10-31T06:48:55;101150.25;;;7.69;100.00
12666;BME280;58531;59.050;17.416;2022-10-31T06:51:23;101154.00;;;7.72;100.00
12666;BME280;58531;59.050;17.416;2022-10-31T06:53:51;101154.78;;;7.72;100.00
12666;BME280;58531;59.050;17.416;2022-10-31T06:56:18;101147.59;;;7.69;100.00
12666;BME280;58531;59.050;17.416;2022-10-31T06:58:47;101135.00;;;7.73;100.00
12666;BME280;58531;59.050;17.416;2022-10-31T07:01:15;101147.88;;;7.75;100.00
12666;BME280;58531;59.050;17.416;2022-10-31T07:03:43;101150.09;;;7.80;100.00
12666;BME280;58531;59.050;17.416;2022-10-31T07:06:18;101155.38;;;7.83;100.00
12666;BME280;58531;59.050;17.416;2022-10-31T07:08:49;101153.09;;;7.82;100.00
12666;BME280;58531;59.050;17.416;2022-10-31T07:11:17;101148.56;;;7.82;100.00
12666;BME280;58531;59.050;17.416;2022-10-31T07:13:45;101153.81;;;7.86;100.00
12666;BME280;58531;59.050;17.416;2022-10-31T07:16:15;101157.59;;;7.88;100.00
12666;BME280;58531;59.050;17.416;2022-10-31T07:18:43;101162.41;;;7.93;100.00
12666;BME280;58531;59.050;17.416;2022-10-31T07:21:14;101157.44;;;7.95;100.00
12666;BME280;58531;59.050;17.416;2022-10-31T07:23:42;101156.59;;;8.02;100.00
12666;BME280;58531;59.050;17.416;2022-10-31T07:26:10;101157.69;;;8.04;100.00
12666;BME280;58531;59.050;17.416;2022-10-31T07:28:41;101161.06;;;8.08;100.00
12666;BME280;58531;59.050;17.416;2022-10-31T07:31:09;101163.25;;;8.13;100.00
12666;BME280;58531;59.050;17.416;2022-10-31T07:33:37;101159.34;;;8.21;100.00
12666;BME280;58531;59.050;17.416;2022-10-31T07:36:05;101172.31;;;8.19;100.00
12666;BME280;58531;59.050;17.416;2022-10-31T07:38:35;101170.69;;;8.25;100.00
12666;BME280;58531;59.050;17.416;2022-10-31T07:41:02;101168.03;;;8.25;100.00
12666;BME280;58531;59.050;17.416;2022-10-31T07:43:30;101158.44;;;8.31;100.00
12666;BME280;58531;59.050;17.416;2022-10-31T07:45:59;101172.03;;;8.36;100.00
12666;BME280;58531;59.050;17.416;2022-10-31T07:48:27;101174.16;;;8.45;100.00
12666;BME280;58531;59.050;17.416;2022-10-31T07:50:55;101171.84;;;8.47;100.00
12666;BME280;58531;59.050;17.416;2022-10-31T07:53:23;101177.84;;;8.51;100.00
12666;BME280;58531;59.050;17.416;2022-10-31T07:55:53;101177.84;;;8.51;100.00
12666;BME280;58531;59.050;17.416;2022-10-31T07:58:22;101167.50;;;8.56;100.00
12666;BME280;58531;59.050;17.416;2022-10-31T08:00:51;101159.78;;;8.62;100.00
12666;BME280;58531;59.050;17.416;2022-10-31T08:03:19;101164.38;;;8.61;100.00
12666;BME280;58531;59.050;17.416;2022-10-31T08:05:47;101169.22;;;8.66;100.00
12666;BME280;58531;59.050;17.416;2022-10-31T08:08:19;101185.81;;;8.74;100.00
12666;BME280;58531;59.050;17.416;2022-10-31T08:10:53;101188.13;;;8.72;100.00
12666;BME280;58531;59.050;17.416;2022-10-31T08:13:22;101188.00;;;8.79;100.00
12666;BME280;58531;59.050;17.416;2022-10-31T08:15:52;101187.31;;;8.75;100.00
12666;BME280;58531;59.050;17.416;2022-10-31T08:18:22;101181.66;;;8.73;100.00
12666;BME280;58531;59.050;17.416;2022-10-31T08:20:49;101181.19;;;8.78;100.00
12666;BME280;58531;59.050;17.416;2022-10-31T08:23:19;101171.56;;;8.84;100.00
12666;BME280;58531;59.050;17.416;2022-10-31T08:25:52;101163.91;;;8.86;100.00
12666;BME280;58531;59.050;17.416;2022-10-31T08:28:20;101160.34;;;8.92;100.00
12666;BME280;58531;59.050;17.416;2022-10-31T08:30:50;101167.66;;;9.08;100.00
12666;BME280;58531;59.050;17.416;2022-10-31T08:33:18;101168.22;;;9.19;100.00
12666;BME280;58531;59.050;17.416;2022-10-31T08:35:48;101167.25;;;9.29;100.00
12666;BME280;58531;59.050;17.416;2022-10-31T08:38:16;101174.34;;;9.35;100.00
12666;BME280;58531;59.050;17.416;2022-10-31T08:40:48;101168.13;;;9.41;100.00
12666;BME280;58531;59.050;17.416;2022-10-31T08:43:22;101173.44;;;9.41;100.00
12666;BME280;58531;59.050;17.416;2022-10-31T08:45:50;101166.34;;;9.35;100.00
12666;BME280;58531;59.050;17.416;2022-10-31T08:48:20;101171.28;;;9.37;100.00
12666;BME280;58531;59.050;17.416;2022-10-31T08:50:50;101167.94;;;9.33;100.00
12666;BME280;58531;59.050;17.416;2022-10-31T08:53:18;101174.28;;;9.38;100.00
12666;BME280;58531;59.050;17.416;2022-10-31T08:55:53;101175.78;;;9.39;100.00
12666;BME280;58531;59.050;17.416;2022-10-31T08:58:23;101186.78;;;9.41;100.00
12666;BME280;58531;59.050;17.416;2022-10-31T09:00:53;101195.28;;;9.52;100.00
12666;BME280;58531;59.050;17.416;2022-10-31T09:03:22;101185.50;;;9.65;100.00
12666;BME280;58531;59.050;17.416;2022-10-31T09:05:55;101174.66;;;9.72;100.00
12666;BME280;58531;59.050;17.416;2022-10-31T09:08:26;101194.41;;;9.75;100.00
12666;BME280;58531;59.050;17.416;2022-10-31T09:10:58;101198.88;;;9.81;100.00
12666;BME280;58531;59.050;17.416;2022-10-31T09:13:30;101199.06;;;9.71;100.00
12666;BME280;58531;59.050;17.416;2022-10-31T09:16:01;101207.34;;;9.76;100.00
12666;BME280;58531;59.050;17.416;2022-10-31T09:18:36;101198.19;;;9.77;100.00
12666;BME280;58531;59.050;17.416;2022-10-31T09:21:05;101191.19;;;9.83;100.00
12666;BME280;58531;59.050;17.416;2022-10-31T09:23:33;101203.22;;;9.91;100.00
12666;BME280;58531;59.050;17.416;2022-10-31T09:26:09;101207.63;;;9.98;100.00
12666;BME280;58531;59.050;17.416;2022-10-31T09:28:46;101197.34;;;9.96;100.00
12666;BME280;58531;59.050;17.416;2022-10-31T09:31:18;101197.75;;;10.14;100.00
12666;BME280;58531;59.050;17.416;2022-10-31T09:33:49;101199.41;;;10.24;100.00
12666;BME280;58531;59.050;17.416;2022-10-31T09:36:24;101196.53;;;10.47;100.00
12666;BME280;58531;59.050;17.416;2022-10-31T09:38:53;101197.88;;;10.55;100.00
12666;BME280;58531;59.050;17.416;2022-10-31T09:41:28;101185.44;;;10.64;100.00
12666;BME280;58531;59.050;17.416;2022-10-31T09:44:07;101205.19;;;10.67;100.00
12666;BME280;58531;59.050;17.416;2022-10-31T09:47:02;101196.81;;;10.81;100.00
12666;BME280;58531;59.050;17.416;2022-10-31T09:49:41;101205.25;;;10.79;100.00
12666;BME280;58531;59.050;17.416;2022-10-31T09:52:20;101207.84;;;10.83;100.00
12666;BME280;58531;59.050;17.416;2022-10-31T09:54:53;101207.22;;;10.63;100.00
12666;BME280;58531;59.050;17.416;2022-10-31T09:57:25;101207.81;;;10.55;100.00
12666;BME280;58531;59.050;17.416;2022-10-31T09:59:58;101210.09;;;10.40;100.00
12666;BME280;58531;59.050;17.416;2022-10-31T10:02:34;101201.97;;;10.44;100.00
12666;BME280;58531;59.050;17.416;2022-10-31T10:05:09;101211.44;;;10.32;100.00
12666;BME280;58531;59.050;17.416;2022-10-31T10:07:44;101215.75;;;10.26;100.00
12666;BME280;58531;59.050;17.416;2022-10-31T10:10:25;101213.25;;;10.19;100.00
12666;BME280;58531;59.050;17.416;2022-10-31T10:13:14;101212.00;;;10.24;100.00
12666;BME280;58531;59.050;17.416;2022-10-31T10:16:04;101217.44;;;10.20;100.00
12666;BME280;58531;59.050;17.416;2022-10-31T10:18:56;101209.00;;;10.22;100.00
12666;BME280;58531;59.050;17.416;2022-10-31T10:21:47;101210.81;;;10.25;100.00
12666;BME280;58531;59.050;17.416;2022-10-31T10:24:27;101213.59;;;10.37;100.00
12666;BME280;58531;59.050;17.416;2022-10-31T10:27:12;101214.72;;;10.52;100.00
12666;BME280;58531;59.050;17.416;2022-10-31T10:29:44;101209.59;;;10.73;100.00
12666;BME280;58531;59.050;17.416;2022-10-31T10:32:20;101200.94;;;10.98;100.00
12666;BME280;58531;59.050;17.416;2022-10-31T10:34:53;101210.91;;;11.10;100.00
12666;BME280;58531;59.050;17.416;2022-10-31T10:37:41;101205.09;;;11.27;100.00
12666;BME280;58531;59.050;17.416;2022-10-31T10:40:15;101206.72;;;11.37;100.00
12666;BME280;58531;59.050;17.416;2022-10-31T10:42:55;101205.13;;;11.52;100.00
12666;BME280;58531;59.050;17.416;2022-10-31T10:45:40;101205.06;;;11.56;100.00
12666;BME280;58531;59.050;17.416;2022-10-31T10:48:48;101210.00;;;11.70;100.00
12666;BME280;58531;59.050;17.416;2022-10-31T10:51:33;101207.44;;;11.78;100.00
12666;BME280;58531;59.050;17.416;2022-10-31T10:54:33;101206.59;;;11.81;100.00
12666;BME280;58531;59.050;17.416;2022-10-31T10:57:12;101200.16;;;11.91;100.00
12666;BME280;58531;59.050;17.416;2022-10-31T10:59:50;101197.16;;;11.89;100.00
12666;BME280;58531;59.050;17.416;2022-10-31T11:02:24;101200.44;;;12.18;100.00
12666;BME280;58531;59.050;17.416;2022-10-31T11:05:13;101199.56;;;12.34;100.00
12666;BME280;58531;59.050;17.416;2022-10-31T11:07:42;101209.47;;;12.58;100.00
12666;BME280;58531;59.050;17.416;2022-10-31T11:10:14;101205.75;;;12.77;100.00
12666;BME280;58531;59.050;17.416;2022-10-31T11:13:15;101214.50;;;12.90;100.00
12666;BME280;58531;59.050;17.416;2022-10-31T11:15:56;101206.56;;;13.20;100.00
12666;BME280;58531;59.050;17.416;2022-10-31T11:18:42;101206.25;;;12.85;100.00
12666;BME280;58531;59.050;17.416;2022-10-31T11:21:42;101219.97;;;12.99;100.00
12666;BME280;58531;59.050;17.416;2022-10-31T11:24:19;101219.44;;;13.13;100.00
12666;BME280;58531;59.050;17.416;2022-10-31T11:26:49;101210.44;;;12.98;100.00
12666;BME280;58531;59.050;17.416;2022-10-31T11:29:28;101211.41;;;12.92;100.00
12666;BME280;58531;59.050;17.416;2022-10-31T11:32:18;101206.44;;;13.02;100.00
12666;BME280;58531;59.050;17.416;2022-10-31T11:34:52;101202.50;;;12.95;100.00
12666;BME280;58531;59.050;17.416;2022-10-31T11:37:26;101200.88;;;12.97;100.00
12666;BME280;58531;59.050;17.416;2022-10-31T11:39:59;101195.94;;;12.96;100.00
12666;BME280;58531;59.050;17.416;2022-10-31T11:42:57;101199.84;;;12.82;100.00
12666;BME280;58531;59.050;17.416;2022-10-31T11:45:34;101200.88;;;12.97;100.00
12666;BME280;58531;59.050;17.416;2022-10-31T11:48:18;101213.16;;;13.07;100.00
12666;BME280;58531;59.050;17.416;2022-10-31T11:50:57;101214.31;;;13.27;100.00
12666;BME280;58531;59.050;17.416;2022-10-31T11:53:34;101210.66;;;13.34;100.00
12666;BME280;58531;59.050;17.416;2022-10-31T11:56:16;101203.22;;;13.38;100.00
12666;BME280;58531;59.050;17.416;2022-10-31T11:58:55;101199.72;;;13.50;100.00
12666;BME280;58531;59.050;17.416;2022-10-31T12:01:39;101206.34;;;13.67;100.00
12666;BME280;58531;59.050;17.416;2022-10-31T12:04:28;101203.50;;;14.01;98.67
12666;BME280;58531;59.050;17.416;2022-10-31T12:06:59;101199.63;;;14.11;97.03
12666;BME280;58531;59.050;17.416;2022-10-31T12:09:36;101205.72;;;14.02;96.87
12666;BME280;58531;59.050;17.416;2022-10-31T12:12:38;101201.94;;;13.82;95.58
12666;BME280;58531;59.050;17.416;2022-10-31T12:15:30;101200.09;;;13.70;97.00
12666;BME280;58531;59.050;17.416;2022-10-31T12:18:25;101199.56;;;13.84;98.00
12666;BME280;58531;59.050;17.416;2022-10-31T12:21:13;101195.53;;;13.88;97.10
12666;BME280;58531;59.050;17.416;2022-10-31T12:24:01;101205.28;;;13.95;97.93
12666;BME280;58531;59.050;17.416;2022-10-31T12:26:44;101201.66;;;13.89;96.48
12666;BME280;58531;59.050;17.416;2022-10-31T12:29:28;101193.44;;;13.83;96.38
12666;BME280;58531;59.050;17.416;2022-10-31T12:32:21;101193.81;;;14.12;93.89
12666;BME280;58531;59.050;17.416;2022-10-31T12:35:31;101192.63;;;14.04;94.40
12666;BME280;58531;59.050;17.416;2022-10-31T12:38:39;101188.06;;;13.83;94.20
12666;BME280;58531;59.050;17.416;2022-10-31T12:41:44;101187.59;;;13.76;95.61
12666;BME280;58531;59.050;17.416;2022-10-31T12:44:34;101199.97;;;13.73;96.52
12666;BME280;58531;59.050;17.416;2022-10-31T12:47:25;101191.63;;;13.71;96.65
12666;BME280;58531;59.050;17.416;2022-10-31T12:50:08;101197.59;;;13.75;95.78
12666;BME280;58531;59.050;17.416;2022-10-31T12:53:05;101192.09;;;13.79;94.72
12666;BME280;58531;59.050;17.416;2022-10-31T12:55:52;101193.72;;;13.76;95.60
12666;BME280;58531;59.050;17.416;2022-10-31T12:58:34;101189.81;;;13.68;95.36
12666;BME280;58531;59.050;17.416;2022-10-31T13:01:16;101186.22;;;13.62;96.04
12666;BME280;58531;59.050;17.416;2022-10-31T13:03:49;101186.31;;;13.59;96.63
12666;BME280;58531;59.050;17.416;2022-10-31T13:06:22;101197.31;;;13.52;96.86
12666;BME280;58531;59.050;17.416;2022-10-31T13:08:57;101189.47;;;13.57;97.05
12666;BME280;58531;59.050;17.416;2022-10-31T13:11:37;101194.78;;;13.48;96.92
12666;BME280;58531;59.050;17.416;2022-10-31T13:14:18;101188.22;;;13.49;97.23